Nearby METAR Reports

 

EDNY - Friedrichshafen, Germany
Distance from station: O 31km
aktuell: 23.09.2014 07:50
klar
klar
 Wind von NO
Wind: NO 7 km/h
Temperatur: 4°C
gefühlte Temperatur: 2°C
Taupunkt: 2°C
Luftfeuchte: 87%
Luftdruck: 1022 hPa
Clouds: klar
Visibility: 8 km
2014/09/23 05:50 EDNY 230550Z 04004KT 8000 SKC 04/02 Q1022 RMK ATIS E
LSZR - Rheineck/Altenrh, Switzerland
Distance from station: SO 42km
aktuell: 23.09.2014 07:50
Few Clouds
Few Clouds
 Wind von varies
Wind: varies 2 km/h
Temperatur: 6°C
Taupunkt: 5°C
Luftfeuchte: 93%
Luftdruck: 1022 hPa
Clouds: Few Clouds
Visibility: 10 km
Cloud details: Few Clouds 610 m
2014/09/23 05:50 LSZR 230550Z VRB01KT 9999 FEW020 06/05 Q1022 NOSIG RMK B
LSZH - Zurich-Kloten (a, Switzerland
Distance from station: WSW 49km
aktuell: 23.09.2014 07:50
teilweise bewölkt
teilweise bewölkt
 Wind von NNW
Wind: NNW 7 km/h
Temperatur: 5°C
gefühlte Temperatur: 3°C
Taupunkt: 4°C
Luftfeuchte: 93%
Luftdruck: 1022 hPa
Clouds: teilweise bewölkt
Visibility: 9 km
2014/09/23 05:50 LSZH 230550Z 34004KT 9000 NSC 05/04 Q1022 NOSIG
 
EDTD - Donaueschingen, Germany
Distance from station: NW 53km
aktuell: 30.04.2014 18:20
NOT Current
sehr leichter Niederschlag, geschlossene Wolkendecke
sehr leichter Niederschlag, geschlossene Wolkendecke
 Wind von SSW
Wind: SSW 9 km/h
Temperatur: 10°C
gefühlte Temperatur: 9°C
Taupunkt: 10°C
Luftfeuchte: 100%
Luftdruck: 1011 hPa
Zusammenfassung: sehr leichter Niederschlag
Clouds: geschlossene Wolkendecke
Visibility: 9 km
Cloud details: stark bewölkt 213 m
geschlossene Wolkendecke 335 m
2014/04/30 16:20 EDTD 301620Z 20005KT 9000 -RA BKN007 OVC011 10/10 Q1011 LAST ?
ETGZ - Messstetten, Germany
Distance from station: N 54km
aktuell: 30.09.2013 14:20
NOT Current
geschlossene Wolkendecke
geschlossene Wolkendecke
 Wind von varies
Wind: varies 4 km/h
Temperatur: 8°C
Taupunkt: 7°C
Luftfeuchte: 93%
Luftdruck: 1007 hPa
Clouds: geschlossene Wolkendecke
Visibility: 10 km
Cloud details: geschlossene Wolkendecke 213 m
2013/09/30 12:20 ETGZ 301220Z VRB02KT 9999 OVC007 08/07 Q1007 GRN
LOIH - Hohenems-Dornbir, Austria
Distance from station: SO 57km
aktuell: 22.09.2014 17:00
NOT Current
stark bewölkt
stark bewölkt
 Wind von N
Wind: N 6 km/h
Temperatur: 16°C
Taupunkt: 9°C
Luftfeuchte: 63%
Luftdruck: 1018 hPa
Clouds: stark bewölkt
Cloud details: teilweise bewölkt 610 m
stark bewölkt 914 m
2014/09/22 15:00 LOIH 221500Z 36003KT 15KM SCT020SC BKN030SC 16/09 Q1018 RMK BKN
 
ETHL - Laupheim (ger-Ar, Germany
Distance from station: NO 84km
aktuell: 23.09.2014 07:20
teilweise bewölkt
teilweise bewölkt
 Wind von WSW
Wind: WSW 7 km/h
Temperatur: 5°C
gefühlte Temperatur: 3°C
Taupunkt: 4°C
Luftfeuchte: 93%
Luftdruck: 1022 hPa
Clouds: teilweise bewölkt
Visibility: 10 km
Cloud details: Few Clouds 914 m
teilweise bewölkt 1311 m
2014/09/23 05:20 ETHL 230520Z 24004KT 9999 FEW030 SCT043 05/04 Q1022 BLU+BLU TEMPO WHT
EDJA - Memmingen Allgau, Germany
Distance from station: ONO 90km
aktuell: 23.09.2014 07:50
stark bewölkt
stark bewölkt
 Wind von varies
Wind: varies 4 km/h
Temperatur: 5°C
Taupunkt: 4°C
Luftfeuchte: 93%
Luftdruck: 1022 hPa
Clouds: stark bewölkt
Visibility: 8 km
Cloud details: stark bewölkt 1280 m
2014/09/23 05:50 EDJA 230550Z VRB02KT 8000 BKN042 05/04 Q1022
LSME - Emmen, Switzerland
Distance from station: SW 90km
aktuell: 23.09.2014 07:50
stark bewölkt
stark bewölkt
 Wind von N
Wind: N 2 km/h
Temperatur: 7°C
Taupunkt: 5°C
Luftfeuchte: 87%
Luftdruck: 1022 hPa
Clouds: stark bewölkt
Visibility: 10 km
Cloud details: Few Clouds 427 m
stark bewölkt 518 m
stark bewölkt 640 m
2014/09/23 05:50 LSME 230550Z 36001KT 9999 FEW014 BKN017 BKN021 07/05 Q1022 RMK GRN
 
LSZC - Buochs, Switzerland
Distance from station: SSW 98km
aktuell: 23.09.2014 07:50
stark bewölkt
stark bewölkt
 Wind von SW
Wind: SW 9 km/h
Temperatur: 9°C
gefühlte Temperatur: 7°C
Taupunkt: 6°C
Luftfeuchte: 82%
Luftdruck: 1021 hPa
Clouds: stark bewölkt
Visibility: 10 km
Cloud details: teilweise bewölkt 549 m
stark bewölkt 732 m
2014/09/23 05:50 LSZC 230550Z 22005KT 9999 SCT018 BKN024 09/06 Q1021